createdAt,value
2018-08-19T08:12:22.106Z,61.28
2018-08-19T08:21:52.017Z,59.30
2018-08-19T08:22:51.071Z,58.89
2018-08-19T08:23:50.802Z,59.59
2018-08-19T08:24:50.750Z,59.36
2018-08-19T08:28:27.686Z,59.99
2018-08-19T08:29:27.811Z,58.69
2018-08-19T08:30:27.518Z,58.59
2018-08-19T08:31:27.497Z,59.39
2018-08-19T08:32:28.324Z,58.97
2018-08-19T08:33:27.451Z,58.76
2018-08-19T08:34:27.520Z,58.86
2018-08-19T08:35:27.383Z,58.67
2018-08-19T08:36:27.491Z,58.67
2018-08-19T08:37:27.637Z,59.56
2018-08-19T08:38:27.436Z,58.34
2018-08-19T08:39:27.397Z,60.44
2018-08-19T08:42:03.646Z,56.59
2018-08-19T08:43:04.372Z,56.88
2018-08-19T08:49:06.792Z,56.66
2018-08-19T08:50:06.499Z,56.56
2018-08-19T08:51:06.445Z,56.66
2018-08-19T08:52:06.359Z,55.96
2018-08-19T08:53:08.196Z,56.26
2018-08-19T08:57:03.274Z,56.83
2018-08-19T08:58:02.657Z,56.43
2018-08-19T09:13:48.326Z,55.41
2018-08-19T09:14:48.388Z,55.01
2018-08-19T09:15:48.595Z,54.71
2018-08-19T09:16:47.941Z,54.19
2018-08-19T09:17:48.871Z,54.51
2018-08-19T09:18:47.678Z,54.68
2018-08-19T09:19:48.589Z,53.69
2018-08-19T09:20:48.690Z,53.89
2018-08-19T09:36:44.639Z,53.09
2018-08-19T09:37:44.392Z,54.58
2018-08-19T09:38:44.481Z,54.75
2018-08-19T09:39:44.311Z,52.57
2018-08-19T09:40:44.221Z,52.17
2018-08-19T09:41:44.178Z,52.67
2018-08-19T09:42:44.787Z,53.16
2018-08-19T09:43:44.152Z,52.24
2018-08-19T09:44:44.148Z,52.07
2018-08-19T09:45:44.340Z,52.57
2018-08-19T09:46:44.280Z,52.67
2018-08-19T09:47:44.564Z,53.86
2018-08-19T09:48:44.979Z,53.56
2018-08-19T09:49:44.124Z,52.24
2018-08-19T09:50:44.090Z,53.04
2018-08-19T09:51:44.074Z,52.22
2018-08-19T09:52:44.157Z,51.45
2018-08-19T09:53:44.050Z,51.95
2018-08-19T09:54:44.064Z,51.45
2018-08-19T09:55:44.074Z,52.81
2018-08-19T09:56:44.023Z,51.92
2018-08-19T09:57:44.095Z,51.30
2018-08-19T09:58:44.029Z,51.60
2018-08-19T09:59:43.995Z,51.40
2018-08-19T10:00:44.055Z,51.70
2018-08-19T10:01:44.086Z,51.30
2018-08-19T10:02:44.027Z,51.40
2018-08-19T10:03:44.009Z,50.20
2018-08-19T10:04:44.499Z,50.23
2018-08-19T10:05:43.982Z,51.32
2018-08-19T10:06:43.982Z,51.72
2018-08-19T10:07:48.583Z,50.52
2018-08-19T10:08:44.016Z,50.93
2018-08-19T10:09:43.976Z,51.45
2018-08-19T10:10:44.475Z,51.17
2018-08-19T10:11:43.899Z,52.14
2018-08-19T10:12:43.871Z,52.14
2018-08-19T10:13:43.993Z,51.45
2018-08-19T10:14:44.541Z,51.84
2018-08-19T10:21:30.213Z,50.93
2018-08-19T10:22:30.132Z,51.62
2018-08-19T10:23:30.272Z,50.73
2018-08-19T10:24:29.988Z,51.30
2018-08-19T10:25:30.210Z,50.50
2018-08-19T10:26:29.943Z,51.03
2018-08-19T10:27:29.922Z,51.35
2018-08-19T10:28:30.039Z,51.25
2018-08-19T10:29:30.358Z,51.35
2018-08-19T10:30:30.034Z,52.04
2018-08-19T10:31:30.067Z,51.95
2018-08-19T10:32:37.922Z,51.22
2018-08-19T10:33:29.971Z,51.60
2018-08-19T10:34:29.870Z,51.50
2018-08-19T10:35:29.899Z,51.57
2018-08-19T10:36:29.905Z,49.49
2018-08-19T10:39:37.860Z,48.84
2018-08-19T10:40:37.017Z,50.43
2018-08-19T10:41:37.186Z,50.81
2018-08-19T10:42:47.546Z,49.04
2018-08-19T10:43:36.670Z,48.84
2018-08-19T10:44:36.760Z,48.84
2018-08-19T10:45:36.650Z,48.94
2018-08-19T10:46:36.670Z,48.52
2018-08-19T10:47:36.733Z,48.82
2018-08-19T10:48:36.614Z,48.82
2018-08-19T10:49:36.768Z,47.23
2018-08-19T10:50:36.598Z,47.21
2018-08-19T10:51:36.831Z,49.09
2018-08-19T10:52:36.575Z,47.88
2018-08-19T10:53:36.595Z,47.28
2018-08-19T10:54:36.569Z,46.59
2018-08-19T10:55:36.584Z,47.26
2018-08-19T10:56:36.540Z,47.66
2018-08-19T10:57:36.524Z,46.25
2018-08-19T10:58:36.519Z,45.18
2018-08-19T10:59:36.537Z,46.79
2018-08-19T11:00:36.508Z,47.09
2018-08-19T11:01:36.660Z,47.28
2018-08-19T11:02:36.487Z,46.77
2018-08-19T11:03:36.481Z,48.75
2018-08-19T11:04:36.479Z,46.67
2018-08-19T11:05:36.459Z,46.89
2018-08-19T11:06:36.471Z,46.69
2018-08-19T11:07:36.437Z,46.31
2018-08-19T11:08:36.434Z,48.10
2018-08-19T11:09:36.449Z,47.68
2018-08-19T11:10:36.414Z,47.58
2018-08-19T11:11:36.398Z,45.57
2018-08-19T11:12:36.425Z,46.31
2018-08-19T11:13:36.389Z,47.01
2018-08-19T11:14:36.374Z,47.41
2018-08-19T11:15:36.366Z,46.79
2018-08-19T11:16:36.360Z,47.28
2018-08-19T11:17:36.371Z,46.97
2018-08-19T11:18:36.340Z,46.07
2018-08-19T11:19:36.336Z,46.94
2018-08-19T11:20:36.394Z,46.15
2018-08-19T11:21:36.358Z,45.63
2018-08-19T11:22:36.348Z,45.23
2018-08-19T11:23:36.287Z,45.14
2018-08-19T11:24:36.320Z,45.36
2018-08-19T11:25:36.298Z,45.38
2018-08-19T11:26:36.282Z,45.28
2018-08-19T11:27:36.320Z,45.79
2018-08-19T11:28:36.324Z,45.78
2018-08-19T11:29:36.235Z,46.05
2018-08-19T11:30:36.221Z,45.56
2018-08-19T11:31:36.334Z,45.16
2018-08-19T11:32:36.214Z,44.86
2018-08-19T11:33:36.204Z,45.45
2018-08-19T11:34:36.195Z,44.74
2018-08-19T11:35:36.177Z,44.86
2018-08-19T11:36:36.164Z,46.05
2018-08-19T11:37:36.188Z,45.93
2018-08-19T11:38:36.227Z,45.14
2018-08-19T11:39:36.153Z,44.45
2018-08-19T11:40:36.151Z,45.26
2018-08-19T11:41:36.130Z,45.43
2018-08-19T11:42:36.149Z,46.72
2018-08-19T11:43:36.121Z,44.54
2018-08-19T11:44:36.452Z,44.74
2018-08-19T11:45:36.082Z,44.74
2018-08-19T11:46:36.148Z,45.14
2018-08-19T11:47:36.131Z,46.12
2018-08-19T11:48:36.383Z,45.26
2018-08-19T11:49:36.162Z,45.68
2018-08-19T11:50:36.210Z,45.36
2018-08-19T11:51:36.112Z,45.78
2018-08-19T11:52:36.050Z,46.05
2018-08-19T11:53:36.061Z,44.94
2018-08-19T11:54:36.009Z,45.41
2018-08-19T11:55:36.549Z,45.98
2018-08-19T11:56:35.996Z,43.39
2018-08-19T11:57:36.014Z,45.17
2018-08-19T11:58:36.003Z,42.88
2018-08-19T11:59:36.004Z,44.16
2018-08-19T12:00:36.014Z,42.48
2018-08-19T12:01:36.047Z,43.17
2018-08-19T12:02:35.991Z,42.78
2018-08-19T12:03:36.396Z,43.17
2018-08-19T12:04:35.941Z,43.17
2018-08-19T12:05:35.922Z,44.73
2018-08-19T12:06:35.934Z,42.85
2018-08-19T12:07:35.898Z,42.34
2018-08-19T12:08:35.894Z,42.14
2018-08-19T12:09:36.049Z,42.58
2018-08-19T12:10:35.891Z,42.99
2018-08-19T12:11:35.959Z,43.71
2018-08-19T12:12:35.858Z,42.92
2018-08-19T12:13:36.372Z,43.79
2018-08-19T12:14:35.879Z,44.40
2018-08-19T12:15:35.859Z,43.41
2018-08-19T12:16:35.868Z,44.18
2018-08-19T12:17:35.894Z,43.21
2018-08-19T12:18:35.937Z,43.71
2018-08-19T12:19:35.894Z,42.90
2018-08-19T12:20:35.797Z,43.80
2018-08-19T12:21:35.780Z,45.17
2018-08-19T12:22:35.804Z,42.70
2018-08-19T12:23:35.938Z,42.80
2018-08-19T12:24:35.744Z,42.82
2018-08-19T12:25:35.746Z,42.90
2018-08-19T12:26:35.952Z,43.96
2018-08-19T12:27:35.791Z,42.85
2018-08-19T12:28:35.715Z,42.93
2018-08-19T12:29:35.696Z,42.16
2018-08-19T12:30:35.700Z,42.46
2018-08-19T12:31:35.722Z,42.36
2018-08-19T12:32:35.660Z,42.64
2018-08-19T12:33:35.648Z,42.97
2018-08-19T12:34:35.654Z,42.56
2018-08-19T12:35:35.633Z,42.83
2018-08-19T12:36:35.650Z,41.75
2018-08-19T12:37:35.699Z,43.03
2018-08-19T12:38:35.655Z,41.73
2018-08-19T12:39:35.608Z,41.71
2018-08-19T12:40:35.651Z,40.05
2018-08-19T12:41:35.590Z,41.33
2018-08-19T12:42:35.568Z,41.85
2018-08-19T12:43:35.650Z,41.85
2018-08-19T12:44:35.553Z,41.08
2018-08-19T12:45:35.539Z,42.48
2018-08-19T12:46:35.563Z,42.40
2018-08-19T12:47:35.519Z,42.90
2018-08-19T12:48:35.511Z,42.70
2018-08-19T12:49:35.778Z,42.70
2018-08-19T12:50:35.487Z,42.80
2018-08-19T12:51:35.491Z,43.41
2018-08-19T12:52:35.500Z,42.92
2018-08-19T12:53:35.461Z,43.31
2018-08-19T12:54:35.461Z,42.92
2018-08-19T12:55:35.545Z,42.84
2018-08-19T12:56:35.472Z,43.33
2018-08-19T12:57:35.437Z,43.12
2018-08-19T12:58:35.431Z,43.02
2018-08-19T12:59:35.420Z,42.82
2018-08-19T13:00:35.404Z,42.72
2018-08-19T13:01:35.433Z,42.92
2018-08-19T13:02:35.623Z,42.72
2018-08-19T13:03:35.381Z,42.80
2018-08-19T13:04:35.380Z,42.99
2018-08-19T13:05:35.353Z,42.21
2018-08-19T13:06:35.398Z,42.70
2018-08-19T13:07:35.451Z,42.78
2018-08-19T13:08:35.337Z,42.46
2018-08-19T13:09:35.322Z,41.38
2018-08-19T13:10:38.068Z,41.17
2018-08-19T13:11:35.298Z,42.16
2018-08-19T13:12:35.386Z,41.57
2018-08-19T13:13:35.279Z,41.55
2018-08-19T13:14:35.280Z,40.37
2018-08-19T13:15:35.532Z,41.36
2018-08-19T13:16:35.324Z,41.77
2018-08-19T13:17:35.274Z,41.67
2018-08-19T13:18:35.281Z,41.55
2018-08-19T13:19:35.312Z,41.83
2018-08-19T13:20:35.308Z,40.25
2018-08-19T13:21:35.224Z,40.23
2018-08-19T13:22:35.189Z,40.13
2018-08-19T13:23:35.206Z,40.53
2018-08-19T13:24:35.247Z,39.42
2018-08-19T13:25:35.176Z,39.64
2018-08-19T13:26:35.316Z,39.84
2018-08-19T13:27:35.176Z,40.92
2018-08-19T13:28:35.216Z,41.22
2018-08-19T13:29:35.128Z,39.44
2018-08-19T13:30:35.114Z,39.56
2018-08-19T13:31:35.260Z,40.05
2018-08-19T13:32:35.159Z,41.93
2018-08-19T13:33:35.119Z,41.91
2018-08-19T13:34:35.134Z,39.72
2018-08-19T13:35:35.073Z,40.80
2018-08-19T13:36:35.058Z,39.32
2018-08-19T13:37:35.114Z,40.80
2018-08-19T13:38:35.265Z,39.70
2018-08-19T13:39:35.606Z,39.87
2018-08-19T13:40:35.220Z,38.48
2018-08-19T13:41:35.178Z,38.76
2018-08-19T13:42:35.051Z,38.68
2018-08-19T13:43:35.077Z,37.89
2018-08-19T13:49:02.613Z,40.01
2018-08-19T13:50:02.264Z,39.42
2018-08-19T13:51:05.316Z,39.64
2018-08-19T13:52:04.977Z,40.01
2018-08-19T14:01:52.082Z,39.44
2018-08-19T14:02:52.237Z,39.36
2018-08-19T14:03:52.325Z,39.46
2018-08-19T14:09:53.912Z,39.36
2018-08-19T14:10:53.861Z,39.65
2018-08-19T14:16:41.518Z,40.56
2018-08-19T14:37:29.550Z,40.33
2018-08-19T14:38:28.899Z,41.30
2018-08-19T14:39:28.913Z,40.61
2018-08-19T14:40:29.315Z,40.61
2018-08-19T14:41:28.904Z,40.70
2018-08-19T14:42:28.751Z,41.00
2018-08-19T14:43:28.858Z,41.77
2018-08-19T14:44:28.719Z,40.78
2018-08-19T14:45:29.601Z,40.19
2018-08-19T14:46:28.796Z,40.88
2018-08-19T14:47:28.688Z,40.39
2018-08-19T14:48:28.690Z,39.38
2018-08-19T14:49:28.703Z,39.89
2018-08-19T14:50:28.650Z,39.00
2018-08-19T14:51:28.680Z,39.42
2018-08-19T14:52:28.632Z,40.21
2018-08-19T14:53:28.932Z,39.83
2018-08-19T14:54:28.599Z,40.01
2018-08-19T14:55:28.677Z,39.81
2018-08-19T14:56:28.917Z,40.31
2018-08-19T14:57:28.575Z,39.72
2018-08-19T14:58:29.454Z,39.89
2018-08-19T14:59:29.481Z,39.89
2018-08-19T15:00:35.996Z,39.50
2018-08-19T15:01:29.434Z,39.50
2018-08-19T15:09:18.924Z,40.42
2018-08-19T15:10:18.351Z,40.53
2018-08-19T15:11:18.482Z,41.59
2018-08-19T15:12:18.488Z,40.11
2018-08-19T15:18:42.161Z,39.54
2018-08-19T15:19:41.693Z,39.73
2018-08-19T15:20:41.549Z,40.03
2018-08-19T15:21:41.361Z,40.25
2018-08-19T15:22:41.321Z,40.72
2018-08-19T15:23:41.366Z,39.46
2018-08-19T15:24:41.300Z,40.13
2018-08-19T15:25:41.276Z,39.36
2018-08-19T15:26:41.314Z,39.85
2018-08-19T15:27:41.265Z,39.36
2018-08-19T15:28:41.270Z,39.85
2018-08-19T15:29:41.271Z,39.77
2018-08-19T15:30:41.235Z,39.65
2018-08-19T15:31:41.292Z,39.36
2018-08-19T15:32:42.184Z,39.26
2018-08-19T15:33:41.225Z,39.56
2018-08-19T15:34:41.190Z,39.46
2018-08-19T15:35:42.166Z,39.46
2018-08-19T15:36:41.331Z,39.97
2018-08-19T15:37:41.357Z,39.99
2018-08-19T15:38:41.153Z,40.17
2018-08-19T15:39:41.154Z,40.26
2018-08-19T15:46:04.995Z,39.16
2018-08-19T15:48:08.008Z,39.85
2018-08-19T15:49:07.870Z,39.65
2018-08-19T15:50:07.368Z,40.25
2018-08-19T15:51:08.371Z,40.55
2018-08-19T15:52:07.275Z,40.03
2018-08-19T15:53:07.411Z,39.64
2018-08-19T15:54:07.237Z,39.34
2018-08-19T15:55:07.271Z,39.04
2018-08-19T15:56:07.406Z,38.55
2018-08-19T15:57:07.184Z,39.34
2018-08-19T15:58:07.273Z,39.43
2018-08-19T15:59:07.174Z,38.84
2018-08-19T16:00:07.399Z,38.84
2018-08-19T16:01:07.237Z,39.95
2018-08-19T16:02:07.180Z,39.85
2018-08-19T16:03:07.155Z,39.93
2018-08-19T16:04:07.291Z,38.84
2018-08-19T16:05:07.317Z,39.14
2018-08-19T16:06:07.722Z,39.56
2018-08-19T16:07:07.075Z,40.05
2018-08-19T16:08:07.118Z,39.26
2018-08-19T16:09:07.050Z,39.75
2018-08-19T16:10:07.082Z,40.03
2018-08-19T16:11:07.117Z,40.15
2018-08-19T16:12:07.170Z,40.76
2018-08-19T16:13:11.711Z,40.96
2018-08-19T16:14:07.054Z,40.26
2018-08-19T16:15:08.822Z,40.66
2018-08-19T16:16:08.999Z,41.46
2018-08-19T16:17:08.127Z,42.44
2018-08-19T16:18:07.225Z,41.83
2018-08-19T16:19:07.253Z,40.55
2018-08-19T16:20:07.171Z,40.25
2018-08-19T16:21:08.031Z,40.47
2018-08-19T16:22:06.909Z,40.76
2018-08-19T16:23:06.920Z,40.37
2018-08-19T16:24:06.967Z,41.06
2018-08-19T16:25:06.872Z,40.96
2018-08-19T16:26:07.214Z,39.77
2018-08-19T16:27:06.867Z,39.89
2018-08-19T16:28:06.861Z,39.79
2018-08-19T16:29:06.831Z,40.19
2018-08-19T16:30:06.846Z,40.37
2018-08-19T16:31:06.817Z,40.86
2018-08-19T16:32:06.850Z,40.56
2018-08-19T16:33:06.949Z,41.06
2018-08-19T16:34:06.831Z,40.47
2018-08-19T16:35:07.032Z,40.66
2018-08-19T16:36:07.711Z,41.28
2018-08-19T16:37:06.811Z,41.57
2018-08-19T16:38:06.739Z,41.57
2018-08-19T16:39:06.735Z,42.27
2018-08-19T16:40:06.715Z,41.97
2018-08-19T16:41:06.709Z,41.79
2018-08-19T16:42:06.943Z,42.38
2018-08-19T16:43:06.872Z,42.09
2018-08-19T16:44:07.007Z,42.29
2018-08-19T16:45:07.245Z,42.58
2018-08-19T16:46:07.425Z,42.19
2018-08-19T16:47:06.685Z,42.49
2018-08-19T16:48:11.900Z,42.58
2018-08-19T16:49:06.664Z,42.50
2018-08-19T16:50:06.704Z,42.60
2018-08-19T16:51:06.716Z,42.78
2018-08-19T16:54:37.163Z,42.90
2018-08-19T16:55:36.813Z,43.10
2018-08-19T16:56:36.674Z,42.60
2018-08-19T16:57:36.605Z,43.10
2018-08-19T16:58:36.610Z,43.10
2018-08-19T16:59:36.635Z,42.71
2018-08-19T17:00:36.590Z,42.71
2018-08-19T17:01:36.722Z,43.49
2018-08-19T17:02:36.685Z,43.60
2018-08-19T17:03:36.581Z,44.09
2018-08-19T17:04:36.553Z,43.62
2018-08-19T17:05:36.556Z,44.21
2018-08-19T17:06:36.546Z,44.41
2018-08-19T17:07:36.502Z,44.31
2018-08-19T17:08:36.800Z,44.71
2018-08-19T17:09:36.496Z,44.60
2018-08-19T17:10:36.524Z,45.12
2018-08-19T17:11:36.580Z,44.81
2018-08-19T17:12:37.599Z,45.23
2018-08-19T17:16:19.582Z,45.32
2018-08-19T17:17:19.093Z,45.42
2018-08-19T17:18:19.122Z,45.32
2018-08-19T17:20:31.365Z,45.25
2018-08-19T17:21:31.004Z,46.14
2018-08-19T17:22:30.938Z,45.94
2018-08-19T17:23:30.823Z,45.84
2018-08-19T17:24:30.796Z,46.44
2018-08-19T17:25:30.813Z,46.83
2018-08-19T17:26:30.946Z,46.24
2018-08-19T17:27:30.742Z,46.83
2018-08-19T17:28:30.747Z,46.83
2018-08-19T17:29:30.737Z,46.83
2018-08-19T17:30:30.713Z,46.93
2018-08-19T17:31:30.718Z,47.13
2018-08-19T17:32:30.803Z,47.13
2018-08-19T17:33:30.725Z,46.83
2018-08-19T17:34:30.666Z,46.83
2018-08-19T17:35:30.671Z,46.83
2018-08-19T17:36:30.671Z,47.43
2018-08-19T17:37:30.640Z,47.33
2018-08-19T17:38:30.634Z,47.95
2018-08-19T17:39:30.764Z,47.33
2018-08-19T17:40:30.664Z,47.25
2018-08-19T17:41:30.652Z,47.23
2018-08-19T17:42:31.073Z,47.16
2018-08-19T17:43:30.752Z,47.75
2018-08-19T17:44:30.566Z,48.14
2018-08-19T17:45:30.613Z,48.25
2018-08-19T17:46:30.551Z,48.94
2018-08-19T17:47:30.663Z,48.77
2018-08-19T17:48:30.532Z,48.65
2018-08-19T17:49:31.667Z,48.86
2018-08-19T17:50:30.770Z,49.16
2018-08-19T17:51:44.608Z,49.36
2018-08-19T17:58:16.114Z,49.86
2018-08-19T17:59:16.054Z,49.78
2018-08-19T18:00:16.012Z,49.88
2018-08-19T18:01:15.907Z,49.88
2018-08-19T18:02:15.886Z,49.76
2018-08-19T18:03:15.955Z,49.78
2018-08-19T18:04:15.950Z,49.68
2018-08-19T18:05:15.846Z,50.28
2018-08-19T18:06:15.869Z,50.58
2018-08-19T18:07:15.836Z,50.38
2018-08-19T18:08:15.816Z,50.38
2018-08-19T18:09:16.007Z,51.07
2018-08-19T18:10:16.594Z,50.68
2018-08-19T18:11:15.787Z,50.90
2018-08-19T18:13:19.994Z,50.60
2018-08-19T18:14:19.328Z,51.30
2018-08-19T18:15:18.970Z,51.30
2018-08-19T18:16:18.660Z,50.90
2018-08-19T18:17:18.816Z,51.60
2018-08-19T18:18:18.499Z,51.79
2018-08-19T18:19:18.596Z,51.60
2018-08-19T18:20:18.481Z,51.30
2018-08-19T18:21:18.482Z,51.20
2018-08-19T18:22:18.509Z,51.30
2018-08-19T18:23:18.521Z,51.30
2018-08-19T18:24:18.500Z,51.30
2018-08-19T18:25:18.493Z,51.89
2018-08-19T18:26:18.474Z,51.60
2018-08-19T18:27:18.405Z,51.70
2018-08-19T18:28:18.394Z,52.12
2018-08-19T18:29:18.422Z,52.51
2018-08-19T18:30:18.373Z,52.22
2018-08-19T18:31:18.427Z,52.32
2018-08-19T18:32:18.433Z,52.51
2018-08-19T18:33:18.352Z,52.32
2018-08-19T18:34:18.473Z,52.62
2018-08-19T18:35:18.354Z,52.51
2018-08-19T18:36:18.398Z,52.34
2018-08-19T18:37:18.297Z,52.84
2018-08-19T18:38:18.364Z,52.94
2018-08-19T18:39:18.358Z,52.74
2018-08-19T18:40:18.800Z,53.34
2018-08-19T18:41:18.308Z,54.33
2018-08-19T18:42:18.275Z,53.24
2018-08-19T18:43:18.470Z,53.34
2018-08-19T18:44:18.353Z,53.16
2018-08-19T18:45:18.206Z,53.36
2018-08-19T18:46:18.230Z,53.76
2018-08-19T18:47:18.186Z,53.96
2018-08-19T18:48:18.194Z,54.36
2018-08-19T18:49:18.175Z,53.76
2018-08-19T18:50:18.155Z,54.06
2018-08-19T18:51:18.152Z,54.66
2018-08-19T18:52:18.492Z,53.86
2018-08-19T18:53:18.165Z,53.99
2018-08-19T18:54:18.508Z,54.49
2018-08-19T18:55:18.130Z,54.49
2018-08-19T18:56:18.223Z,54.58
2018-08-19T18:57:18.097Z,55.08
2018-08-19T18:58:18.072Z,54.68
2018-08-19T18:59:18.063Z,54.58
2018-08-19T19:00:18.117Z,54.98
2018-08-19T19:01:18.045Z,55.48
2018-08-19T19:02:18.118Z,54.88
2018-08-19T19:11:16.618Z,56.51
2018-08-19T19:12:16.215Z,56.93
2018-08-19T19:13:16.098Z,56.43
2018-08-19T19:14:16.508Z,56.43
2018-08-19T19:15:16.062Z,56.33
2018-08-19T19:16:15.958Z,56.13
2018-08-19T19:17:15.900Z,57.03
2018-08-19T19:18:15.917Z,56.66
2018-08-19T19:19:15.939Z,57.56
2018-08-19T19:20:16.151Z,57.35
2018-08-19T19:21:17.017Z,56.96
2018-08-19T19:22:15.942Z,58.36
2018-08-19T19:23:16.012Z,58.28
2018-08-19T19:24:16.513Z,57.26
2018-08-19T19:25:15.907Z,58.55
2018-08-19T19:26:15.872Z,57.58
2018-08-19T19:27:15.792Z,57.48
2018-08-19T19:28:15.781Z,58.08
2018-08-19T19:29:15.768Z,58.38
2018-08-19T19:30:15.842Z,59.08
2018-08-19T19:31:15.783Z,59.18
2018-08-19T19:32:15.735Z,58.58
2018-08-19T19:33:15.792Z,58.18
2018-08-19T19:34:15.768Z,58.78
2018-08-19T19:35:15.795Z,58.28
2018-08-19T19:36:16.025Z,58.68
2018-08-19T19:37:15.696Z,59.38
2018-08-19T19:38:15.715Z,58.78
2018-08-19T19:39:16.417Z,58.51
2018-08-19T19:40:15.673Z,58.61
2018-08-19T19:41:15.677Z,59.70
2018-08-19T19:42:15.654Z,59.70
2018-08-19T19:43:15.620Z,58.91
2018-08-19T19:44:15.613Z,59.81
2018-08-19T19:45:15.751Z,58.51
2018-08-19T19:46:15.625Z,59.61
2018-08-19T19:47:15.638Z,59.83
2018-08-19T19:48:15.573Z,59.53
2018-08-19T19:49:15.547Z,60.14
2018-08-19T19:50:28.546Z,58.84
2018-08-19T19:51:15.663Z,60.24
2018-08-19T19:52:15.778Z,60.14
2018-08-19T19:53:15.579Z,60.74
2018-08-19T19:54:18.378Z,60.63
2018-08-19T19:55:15.603Z,61.24
2018-08-19T19:57:40.478Z,60.14
2018-08-19T19:58:40.598Z,61.16
2018-08-19T19:59:40.432Z,61.36
2018-08-19T20:00:40.350Z,61.36
2018-08-19T20:01:40.269Z,60.57
2018-08-19T20:02:40.307Z,60.96
2018-08-19T20:03:40.274Z,61.76
2018-08-19T20:04:42.235Z,61.79
2018-08-19T20:05:41.248Z,61.69
2018-08-19T20:09:40.759Z,61.49
2018-08-19T20:10:40.436Z,62.70
2018-08-19T20:11:40.891Z,62.99
2018-08-19T20:21:46.684Z,63.82
2018-08-19T20:22:46.677Z,64.03
2018-08-19T20:23:50.775Z,64.03
2018-08-19T20:24:46.158Z,63.72
2018-08-19T20:25:46.594Z,63.42
2018-08-19T20:26:54.051Z,63.65
2018-08-19T20:27:46.168Z,64.32
2018-08-19T20:34:26.573Z,64.25
2018-08-19T20:35:26.212Z,64.86
2018-08-19T20:36:26.106Z,64.55
2018-08-19T20:37:27.442Z,64.25
2018-08-19T20:38:35.679Z,64.06
2018-08-19T20:39:26.292Z,63.48
2018-08-19T20:40:26.336Z,64.48
2018-08-19T20:41:26.085Z,63.95
2018-08-19T20:42:26.072Z,64.65
2018-08-19T20:43:26.026Z,64.69
2018-08-19T20:44:25.962Z,64.69
2018-08-19T20:45:26.003Z,65.39
2018-08-19T20:46:26.052Z,65.39
2018-08-19T20:47:26.022Z,65.48
2018-08-19T20:48:25.942Z,66.09
2018-08-19T20:49:25.970Z,65.31
2018-08-19T20:50:25.996Z,66.09
2018-08-19T20:51:25.926Z,66.02
2018-08-19T20:52:26.004Z,65.42
2018-08-19T20:53:25.885Z,66.12
2018-08-19T20:54:25.845Z,65.52
2018-08-19T20:55:25.902Z,66.22
2018-08-19T20:56:25.918Z,66.42
2018-08-19T20:57:25.838Z,64.81
2018-08-19T20:58:25.849Z,66.62
2018-08-19T20:59:25.814Z,67.42
2018-08-19T21:00:25.847Z,67.22
2018-08-19T21:01:25.853Z,67.52
2018-08-19T21:02:25.768Z,67.45
2018-08-19T21:03:25.805Z,66.65
2018-08-19T21:04:25.796Z,67.45
2018-08-19T21:05:25.752Z,67.45
2018-08-19T21:06:25.770Z,67.65
2018-08-19T21:07:25.877Z,66.65
2018-08-19T21:08:25.826Z,68.26
2018-08-19T21:09:25.782Z,68.96
2018-08-19T21:10:25.843Z,67.88
2018-08-19T21:11:25.760Z,68.79
2018-08-19T21:12:25.905Z,67.99
2018-08-19T21:16:49.571Z,67.99
2018-08-19T21:17:49.576Z,68.19
2018-08-19T21:18:49.601Z,68.39
2018-08-19T21:19:49.437Z,68.79
2018-08-19T21:20:49.432Z,68.79
2018-08-19T21:21:49.571Z,67.58
2018-08-19T21:22:49.364Z,67.58
2018-08-19T21:23:49.308Z,67.92
2018-08-19T21:24:49.329Z,68.59
2018-08-19T21:25:49.315Z,68.79
2018-08-19T21:26:49.289Z,69.09
2018-08-19T21:27:49.234Z,68.02
2018-08-19T21:55:59.007Z,71.83
2018-08-19T21:56:58.084Z,71.73
2018-08-19T21:57:58.180Z,71.43
2018-08-19T21:58:58.146Z,71.23
2018-08-19T21:59:57.925Z,71.30
2018-08-19T22:00:58.818Z,71.20
2018-08-19T22:01:58.531Z,70.50
2018-08-19T22:02:57.960Z,70.50
2018-08-19T22:03:57.898Z,71.39
2018-08-19T22:04:57.923Z,70.83
2018-08-19T22:05:58.042Z,71.43
2018-08-19T22:06:57.999Z,71.50
2018-08-19T22:07:58.360Z,71.50
2018-08-19T22:08:59.485Z,71.30
2018-08-19T22:09:57.844Z,70.29
2018-08-19T22:10:57.891Z,70.89
2018-08-19T22:11:57.830Z,71.09
2018-08-19T22:12:57.844Z,70.79
2018-08-19T22:13:57.770Z,71.30
2018-08-19T22:14:57.781Z,70.89
2018-08-19T22:15:57.794Z,70.89
2018-08-19T22:17:04.504Z,70.79
2018-08-19T22:17:57.777Z,71.30
2018-08-19T22:18:57.776Z,70.39
2018-08-19T22:19:58.516Z,70.89
2018-08-19T22:20:59.505Z,70.39
2018-08-19T22:21:59.451Z,70.50
2018-08-19T22:34:43.626Z,70.86
2018-08-19T23:07:33.760Z,69.02
2018-08-19T23:08:34.098Z,69.82
2018-08-19T23:09:33.570Z,70.32
2018-08-19T23:10:33.363Z,70.32
2018-08-19T23:11:33.213Z,70.73
2018-08-19T23:12:33.197Z,70.43
2018-08-19T23:13:33.322Z,70.73
2018-08-19T23:14:36.117Z,70.83
2018-08-19T23:15:39.460Z,69.93
2018-08-19T23:16:33.095Z,70.83
2018-08-19T23:17:34.036Z,70.43
2018-08-19T23:18:33.090Z,70.73
2018-08-19T23:19:33.086Z,70.66
2018-08-19T23:20:33.048Z,70.73
2018-08-19T23:21:33.074Z,69.73
2018-08-19T23:22:33.183Z,69.62
2018-08-19T23:27:43.851Z,70.73
2018-08-19T23:36:15.033Z,70.03
2018-08-19T23:37:15.013Z,70.12
2018-08-19T23:38:14.669Z,69.82
2018-08-19T23:52:36.719Z,69.93
2018-08-19T23:53:35.560Z,69.73
2018-08-19T23:54:35.644Z,70.73
